Time;durP1;ratioP1;P1;durP2;ratioP2;P2;SDS_P1;SDS_P2;PMS_P1;PMS_P2;Temp;Humidity;BMP_temperature;BMP_pressure;BME280_temperature;BME280_humidity;BME280_pressure;Samples;Min_cycle;Max_cycle;Signal;HPM_P1;HPM_P2
2022/07/04 00:01:45;;;;;;;;;;;;;;;14.01;73.09;101976.47;5076997;28;19923;-54
2022/07/04 00:04:10;;;;;;;;;;;;;;;14.01;73.57;101979.97;5082362;28;19919;-54
2022/07/04 00:06:35;;;;;;;;;;;;;;;14.03;73.08;101972.63;5081267;28;19920;-54
2022/07/04 00:09:00;;;;;;;;;;;;;;;14.02;72.74;101975.47;5075446;28;19920;-54
2022/07/04 00:11:25;;;;;;;;;;;;;;;14.01;72.89;101976.47;5076128;28;19912;-55
2022/07/04 00:13:51;;;;;;;;;;;;;;;14.00;72.78;101980.13;5080152;28;19916;-54
2022/07/04 00:16:16;;;;;;;;;;;;;;;13.98;72.45;101979.47;5075547;28;19980;-56
2022/07/04 00:18:41;;;;;;;;;;;;;;;13.95;72.20;101973.47;5074509;28;20356;-55
2022/07/04 00:21:06;;;;;;;;;;;;;;;13.97;72.60;101975.13;5078037;28;19916;-54
2022/07/04 00:23:31;;;;;;;;;;;;;;;13.99;72.67;101973.13;5076708;28;19958;-55
2022/07/04 00:25:56;;;;;;;;;;;;;;;13.98;72.51;101969.63;5082528;28;19912;-55
2022/07/04 00:28:22;;;;;;;;;;;;;;;13.97;72.53;101961.78;5081972;28;20079;-55
2022/07/04 00:30:47;;;;;;;;;;;;;;;13.94;72.65;101958.44;5078355;28;20363;-55
2022/07/04 00:33:13;;;;;;;;;;;;;;;13.91;72.87;101969.44;5080925;28;19916;-53
2022/07/04 00:35:38;;;;;;;;;;;;;;;13.90;73.84;101965.09;5077209;28;19912;-55
2022/07/04 00:38:03;;;;;;;;;;;;;;;13.90;73.54;101967.78;5078486;28;19973;-54
2022/07/04 00:40:28;;;;;;;;;;;;;;;13.92;73.05;101963.09;5081905;28;19934;-55
2022/07/04 00:42:59;;;;;;;;;;;;;;;13.93;73.07;101962.09;5083826;28;19955;-55
2022/07/04 00:45:24;;;;;;;;;;;;;;;13.95;72.61;101960.09;5081846;28;19919;-57
2022/07/04 00:47:49;;;;;;;;;;;;;;;13.99;72.52;101962.44;5080643;28;19932;-55
2022/07/04 00:50:14;;;;;;;;;;;;;;;14.00;72.42;101964.09;5087662;28;20398;-55
2022/07/04 00:52:40;;;;;;;;;;;;;;;14.00;72.57;101961.44;5084858;28;19912;-55
2022/07/04 00:55:05;;;;;;;;;;;;;;;13.97;72.43;101962.59;5083812;28;19927;-56
2022/07/04 00:57:30;;;;;;;;;;;;;;;13.94;72.58;101955.75;5085190;28;19908;-54
2022/07/04 00:59:55;;;;;;;;;;;;;;;13.94;72.62;101955.75;5085709;28;19936;-56
2022/07/04 01:02:21;;;;;;;;;;;;;;;13.90;72.68;101959.78;5082057;28;19966;-54
2022/07/04 01:04:46;;;;;;;;;;;;;;;13.89;72.55;101963.44;5083043;28;19912;-56
2022/07/04 01:07:11;;;;;;;;;;;;;;;13.89;72.34;101959.94;5083402;28;19919;-55
2022/07/04 01:09:37;;;;;;;;;;;;;;;13.88;72.80;101948.41;5079223;28;19962;-55
2022/07/04 01:12:02;;;;;;;;;;;;;;;13.88;73.02;101958.25;5081294;28;20532;-56
2022/07/04 01:14:27;;;;;;;;;;;;;;;13.87;72.53;101946.72;5084926;28;19919;-55
2022/07/04 01:16:52;;;;;;;;;;;;;;;13.87;72.53;101949.38;5087516;28;19915;-53
2022/07/04 01:19:18;;;;;;;;;;;;;;;13.88;72.86;101944.91;5086835;28;20342;-54
2022/07/04 01:21:43;;;;;;;;;;;;;;;13.88;72.56;101939.56;5085012;28;19958;-56
2022/07/04 01:24:11;;;;;;;;;;;;;;;13.86;72.56;101942.38;5091489;28;19908;-55
2022/07/04 01:26:36;;;;;;;;;;;;;;;13.81;72.75;101943.88;5088667;28;19923;-56
2022/07/04 01:29:01;;;;;;;;;;;;;;;13.73;72.56;101935.88;5088467;28;19916;-55
2022/07/04 01:31:26;;;;;;;;;;;;;;;13.68;72.61;101935.53;5089160;28;19912;-55
2022/07/04 01:33:52;;;;;;;;;;;;;;;13.63;72.52;101938.69;5084231;28;19961;-55
2022/07/04 01:36:17;;;;;;;;;;;;;;;13.57;72.85;101942.00;5082869;28;19912;-55
2022/07/04 01:38:42;;;;;;;;;;;;;;;13.51;72.92;101942.66;5086350;28;20516;-54
2022/07/04 01:41:07;;;;;;;;;;;;;;;13.47;72.65;101930.63;5082520;28;19911;-55
2022/07/04 01:43:34;;;;;;;;;;;;;;;13.42;73.01;101932.97;5086758;28;19912;-55
2022/07/04 01:45:59;;;;;;;;;;;;;;;13.40;72.73;101932.28;5090288;28;19908;-55
2022/07/04 01:48:25;;;;;;;;;;;;;;;13.39;73.01;101934.13;5087779;28;19916;-55
2022/07/04 01:50:50;;;;;;;;;;;;;;;13.38;72.80;101936.94;5083548;28;19915;-55
2022/07/04 01:53:15;;;;;;;;;;;;;;;13.35;72.62;101940.78;5088395;28;19920;-54
2022/07/04 01:55:40;;;;;;;;;;;;;;;13.37;73.16;101933.44;5089309;28;19969;-55
2022/07/04 01:58:05;;;;;;;;;;;;;;;13.39;73.41;101930.63;5086394;28;19916;-56
2022/07/04 02:03:14;;;;;;;;;;;;;;;13.43;73.37;101919.44;5086116;28;19915;-54
2022/07/04 02:05:40;;;;;;;;;;;;;;;13.45;73.15;101921.97;5082846;28;19920;-55
2022/07/04 02:08:06;;;;;;;;;;;;;;;13.46;73.27;101920.97;5083871;28;20381;-55
2022/07/04 02:10:31;;;;;;;;;;;;;;;13.40;73.37;101922.44;5088908;28;19911;-55
2022/07/04 02:13:03;;;;;;;;;;;;;;;13.38;73.30;101918.28;5087643;28;20254;-55
2022/07/04 02:15:32;;;;;;;;;;;;;;;13.38;73.55;101915.59;5087439;28;19935;-53
2022/07/04 02:17:58;;;;;;;;;;;;;;;13.40;73.39;101918.94;5081988;28;19997;-56
2022/07/04 02:20:23;;;;;;;;;;;;;;;13.41;73.51;101921.44;5089401;28;19953;-56
2022/07/04 02:22:48;;;;;;;;;;;;;;;13.43;73.53;101918.63;5085997;28;20433;-56
2022/07/04 02:25:14;;;;;;;;;;;;;;;13.42;73.36;101911.63;5089631;28;19919;-55
2022/07/04 02:27:39;;;;;;;;;;;;;;;13.40;73.54;101914.44;5088617;28;20355;-55
2022/07/04 02:30:04;;;;;;;;;;;;;;;13.39;73.79;101910.09;5087184;28;19986;-56
2022/07/04 02:32:30;;;;;;;;;;;;;;;13.31;73.64;101921.59;5086647;28;20389;-55
2022/07/04 02:34:55;;;;;;;;;;;;;;;13.23;73.59;101921.53;5088440;28;19922;-53
2022/07/04 02:37:20;;;;;;;;;;;;;;;13.17;73.28;101926.66;5087282;28;20443;-54
2022/07/04 02:39:45;;;;;;;;;;;;;;;13.10;73.19;101928.31;5088941;28;19912;-54
2022/07/04 02:42:10;;;;;;;;;;;;;;;13.05;73.62;101930.63;5084608;28;19912;-53
2022/07/04 02:44:36;;;;;;;;;;;;;;;13.00;73.85;101925.75;5084199;28;20410;-54
2022/07/04 02:47:01;;;;;;;;;;;;;;;12.94;73.96;101923.72;5078144;28;19911;-56
2022/07/04 02:49:26;;;;;;;;;;;;;;;12.87;73.54;101918.19;5082890;28;19924;-55
2022/07/04 02:51:51;;;;;;;;;;;;;;;12.87;73.89;101922.69;5085330;28;19912;-55
2022/07/04 02:54:16;;;;;;;;;;;;;;;12.88;73.65;101927.03;5086461;28;19912;-55
2022/07/04 02:56:42;;;;;;;;;;;;;;;12.91;73.83;101924.06;5088863;28;19908;-55
2022/07/04 02:59:07;;;;;;;;;;;;;;;12.93;73.81;101927.38;5086790;28;19915;-54
2022/07/04 03:01:32;;;;;;;;;;;;;;;12.95;73.81;101926.22;5084999;28;19979;-55
2022/07/04 03:03:57;;;;;;;;;;;;;;;12.96;73.77;101930.56;5088747;28;19912;-55
2022/07/04 03:06:22;;;;;;;;;;;;;;;12.97;73.83;101924.25;5085826;28;19913;-56
2022/07/04 03:08:48;;;;;;;;;;;;;;;12.99;73.83;101932.06;5088012;28;19955;-56
2022/07/04 03:11:13;;;;;;;;;;;;;;;13.00;73.90;101933.75;5080706;28;19955;-54
2022/07/04 03:13:39;;;;;;;;;;;;;;;13.00;73.89;101939.09;5078991;28;19916;-54
2022/07/04 03:16:05;;;;;;;;;;;;;;;12.98;73.93;101936.56;5083085;28;19915;-55
2022/07/04 03:18:30;;;;;;;;;;;;;;;12.97;74.03;101934.06;5079065;28;20279;-53
2022/07/04 03:20:55;;;;;;;;;;;;;;;12.97;74.15;101945.56;5079783;28;19981;-54
2022/07/04 03:23:20;;;;;;;;;;;;;;;12.95;73.92;101947.56;5080006;28;20377;-56
2022/07/04 03:25:45;;;;;;;;;;;;;;;12.94;73.86;101948.56;5083177;28;19919;-56
2022/07/04 03:28:11;;;;;;;;;;;;;;;12.95;74.03;101952.06;5082533;28;20321;-55
2022/07/04 03:30:36;;;;;;;;;;;;;;;12.94;74.10;101955.72;5082182;28;19915;-54
2022/07/04 03:33:01;;;;;;;;;;;;;;;12.95;74.17;101954.72;5080813;28;19923;-56
2022/07/04 03:35:27;;;;;;;;;;;;;;;12.95;74.42;101952.06;5081481;28;19916;-56
2022/07/04 03:37:52;;;;;;;;;;;;;;;12.94;74.79;101958.38;5082014;28;20027;-53
2022/07/04 03:40:18;;;;;;;;;;;;;;;12.93;74.31;101964.72;5079496;28;19919;-55
2022/07/04 03:42:43;;;;;;;;;;;;;;;12.91;74.94;101958.72;5079446;28;19919;-54
2022/07/04 03:45:09;;;;;;;;;;;;;;;12.92;74.71;101961.22;5080638;28;19926;-54
2022/07/04 03:47:34;;;;;;;;;;;;;;;12.92;74.62;101960.38;5078708;28;19931;-53
2022/07/04 03:49:59;;;;;;;;;;;;;;;12.92;74.98;101969.22;5079958;28;19912;-55
2022/07/04 03:52:25;;;;;;;;;;;;;;;12.92;75.23;101971.03;5080849;28;20331;-55
2022/07/04 03:54:50;;;;;;;;;;;;;;;12.90;75.55;101981.03;5081821;28;20204;-55
2022/07/04 03:57:15;;;;;;;;;;;;;;;12.85;75.46;101986.00;5083297;28;20303;-54
2022/07/04 03:59:40;;;;;;;;;;;;;;;12.78;75.67;101983.13;5078949;28;19916;-56
2022/07/04 04:02:05;;;;;;;;;;;;;;;12.76;75.88;101977.13;5063799;28;19916;-55
2022/07/04 04:07:15;;;;;;;;;;;;;;;12.82;75.56;101979.16;5080869;28;19935;-54
2022/07/04 04:09:40;;;;;;;;;;;;;;;12.85;76.24;101984.19;5078835;28;20336;-55
2022/07/04 04:12:06;;;;;;;;;;;;;;;12.87;75.91;101995.53;5082650;28;19962;-55
2022/07/04 04:14:31;;;;;;;;;;;;;;;12.88;76.57;101991.03;5086205;28;19955;-55
2022/07/04 04:16:56;;;;;;;;;;;;;;;12.87;76.36;101998.19;5083386;28;19965;-55
2022/07/04 04:19:21;;;;;;;;;;;;;;;12.85;76.36;101983.34;5083475;28;20966;-55
2022/07/04 04:21:46;;;;;;;;;;;;;;;12.84;76.55;101989.66;5084583;28;20010;-55
2022/07/04 04:24:12;;;;;;;;;;;;;;;12.85;76.61;101986.84;5084573;28;19995;-55
2022/07/04 04:26:37;;;;;;;;;;;;;;;12.90;76.55;101991.69;5086871;28;19939;-55
2022/07/04 04:29:02;;;;;;;;;;;;;;;12.90;77.22;101989.03;5085713;28;19965;-55
2022/07/04 04:31:28;;;;;;;;;;;;;;;12.84;77.83;101995.00;5084735;28;19916;-54
2022/07/04 04:33:53;;;;;;;;;;;;;;;12.77;77.77;101991.28;5082991;28;19994;-55
2022/07/04 04:36:19;;;;;;;;;;;;;;;12.70;78.30;101986.56;5085749;28;19920;-55
2022/07/04 04:38:44;;;;;;;;;;;;;;;12.64;78.95;101992.53;5085268;28;20278;-55
2022/07/04 04:41:09;;;;;;;;;;;;;;;12.59;79.31;101986.84;5084438;28;19923;-55
2022/07/04 04:43:35;;;;;;;;;;;;;;;12.57;79.84;101991.47;5082644;28;20127;-55
2022/07/04 04:46:00;;;;;;;;;;;;;;;12.57;80.49;101986.16;5083263;28;19959;-55
2022/07/04 04:48:25;;;;;;;;;;;;;;;12.59;80.77;101986.84;5085314;28;19963;-55
2022/07/04 04:50:50;;;;;;;;;;;;;;;12.62;80.94;101994.50;5082577;28;19911;-53
2022/07/04 04:53:16;;;;;;;;;;;;;;;12.65;81.36;101996.03;5083350;28;20065;-56
2022/07/04 04:55:41;;;;;;;;;;;;;;;12.69;81.73;101992.06;5084667;28;19912;-55
2022/07/04 04:58:06;;;;;;;;;;;;;;;12.75;82.19;101993.28;5085163;28;19916;-56
2022/07/04 05:00:32;;;;;;;;;;;;;;;12.78;82.32;101993.81;5085442;28;19915;-55
2022/07/04 05:02:57;;;;;;;;;;;;;;;12.82;82.58;101997.81;5083236;28;20274;-55
2022/07/04 05:05:22;;;;;;;;;;;;;;;12.85;82.64;101999.34;5084483;28;19971;-55
2022/07/04 05:07:47;;;;;;;;;;;;;;;12.88;82.54;101986.53;5084159;28;19955;-55
2022/07/04 05:10:13;;;;;;;;;;;;;;;12.91;82.81;101985.38;5085055;28;19916;-55
2022/07/04 05:12:38;;;;;;;;;;;;;;;12.95;82.76;101987.56;5085058;28;20299;-55
2022/07/04 05:15:03;;;;;;;;;;;;;;;12.99;82.89;101980.06;5083569;28;19916;-56
2022/07/04 05:17:29;;;;;;;;;;;;;;;13.03;82.88;101984.97;5084978;28;20347;-54
2022/07/04 05:19:54;;;;;;;;;;;;;;;13.07;82.68;101990.81;5080225;28;19919;-55
2022/07/04 05:22:19;;;;;;;;;;;;;;;13.10;82.96;101987.81;5082973;28;19927;-55
2022/07/04 05:24:44;;;;;;;;;;;;;;;13.13;82.81;101987.50;5088719;28;19927;-55
2022/07/04 05:27:09;;;;;;;;;;;;;;;13.18;82.55;101995.06;5090989;28;20331;-55
2022/07/04 05:29:35;;;;;;;;;;;;;;;13.24;82.63;102003.25;5089907;28;20145;-55
2022/07/04 05:32:00;;;;;;;;;;;;;;;13.29;82.89;102005.44;5087493;28;19969;-55
2022/07/04 05:34:25;;;;;;;;;;;;;;;13.36;83.25;102011.81;5090267;28;20442;-55
2022/07/04 05:36:50;;;;;;;;;;;;;;;13.41;82.94;102001.50;5089939;28;19907;-55
2022/07/04 05:39:16;;;;;;;;;;;;;;;13.45;82.98;102010.00;5089714;28;19957;-55
2022/07/04 05:41:41;;;;;;;;;;;;;;;13.51;83.14;102020.03;5083267;28;19948;-55
2022/07/04 05:44:06;;;;;;;;;;;;;;;13.57;82.87;102022.06;5089381;28;19998;-55
2022/07/04 05:46:31;;;;;;;;;;;;;;;13.64;82.80;102023.13;5089817;28;19911;-55
2022/07/04 05:48:57;;;;;;;;;;;;;;;13.73;83.31;102027.47;5089973;28;19968;-54
2022/07/04 05:51:22;;;;;;;;;;;;;;;13.82;83.23;102021.16;5088649;28;19915;-55
2022/07/04 05:53:47;;;;;;;;;;;;;;;13.89;83.07;102027.53;5088049;28;19920;-55
2022/07/04 05:56:12;;;;;;;;;;;;;;;13.97;82.50;102025.88;5082992;28;19912;-55
2022/07/04 05:58:38;;;;;;;;;;;;;;;14.02;82.16;102019.03;5087504;28;19908;-55
2022/07/04 06:01:03;;;;;;;;;;;;;;;14.08;82.26;102021.03;5088282;28;19992;-56
2022/07/04 06:03:28;;;;;;;;;;;;;;;14.19;81.91;102028.75;5089466;28;19908;-55
2022/07/04 06:05:55;;;;;;;;;;;;;;;14.28;82.17;102032.25;5088990;28;19995;-55
2022/07/04 06:08:20;;;;;;;;;;;;;;;14.38;81.98;102035.59;5087755;28;19912;-54
2022/07/04 06:10:45;;;;;;;;;;;;;;;14.43;81.51;102035.13;5086848;28;19960;-52
2022/07/04 06:13:11;;;;;;;;;;;;;;;14.49;81.27;102040.66;5088198;28;19912;-55
2022/07/04 06:15:36;;;;;;;;;;;;;;;14.54;80.88;102032.97;5087963;28;19919;-54
2022/07/04 06:18:02;;;;;;;;;;;;;;;14.61;80.78;102027.78;5088265;28;20296;-54
2022/07/04 06:20:27;;;;;;;;;;;;;;;14.66;80.27;102030.78;5088202;28;20293;-55
2022/07/04 06:22:53;;;;;;;;;;;;;;;14.71;80.41;102028.44;5088043;28;19915;-55
2022/07/04 06:25:19;;;;;;;;;;;;;;;14.80;79.96;102026.63;5088821;28;19911;-53
2022/07/04 06:27:45;;;;;;;;;;;;;;;14.87;79.91;102014.22;5088421;28;19968;-55
2022/07/04 06:30:11;;;;;;;;;;;;;;;14.95;79.38;102019.56;5089178;28;19979;-54
2022/07/04 06:32:46;;;;;;;;;;;;;;;15.10;79.76;102027.72;5086223;28;19942;-55
2022/07/04 06:37:55;;;;;;;;;;;;;;;15.28;78.65;102031.00;5087090;28;19954;-55
2022/07/04 06:40:21;;;;;;;;;;;;;;;15.33;78.82;102023.31;5089295;28;19962;-53
2022/07/04 06:42:46;;;;;;;;;;;;;;;15.39;78.69;102017.25;5085690;28;19954;-55
2022/07/04 06:45:11;;;;;;;;;;;;;;;15.50;78.44;102019.53;5089532;28;19901;-55
2022/07/04 06:47:36;;;;;;;;;;;;;;;15.61;78.05;102020.19;5084967;28;19916;-54
2022/07/04 06:50:01;;;;;;;;;;;;;;;15.73;78.32;102014.28;5083321;28;19915;-54
2022/07/04 06:52:27;;;;;;;;;;;;;;;15.84;77.87;102009.53;5083306;28;19915;-53
2022/07/04 06:54:52;;;;;;;;;;;;;;;15.94;78.15;102013.66;5085309;28;20334;-55
2022/07/04 06:57:17;;;;;;;;;;;;;;;16.00;77.31;102010.28;5083809;28;19912;-52
2022/07/04 06:59:42;;;;;;;;;;;;;;;16.00;77.18;102014.81;5081558;28;19923;-55
2022/07/04 07:02:08;;;;;;;;;;;;;;;15.97;77.04;102028.56;5081553;28;19951;-53
2022/07/04 07:04:33;;;;;;;;;;;;;;;15.92;76.90;102028.25;5079505;28;20001;-53
2022/07/04 07:06:58;;;;;;;;;;;;;;;15.85;76.57;102024.59;5077630;28;19919;-53
2022/07/04 07:09:23;;;;;;;;;;;;;;;15.83;76.64;102022.09;5080328;28;20006;-54
2022/07/04 07:11:48;;;;;;;;;;;;;;;15.82;76.55;102027.63;5085113;28;19923;-55
2022/07/04 07:14:14;;;;;;;;;;;;;;;15.88;77.17;102021.56;5087390;28;20451;-55
2022/07/04 07:16:39;;;;;;;;;;;;;;;15.98;77.05;102035.59;5086942;28;20002;-54
2022/07/04 07:19:04;;;;;;;;;;;;;;;16.08;77.28;102028.13;5081535;28;20213;-53
2022/07/04 07:21:29;;;;;;;;;;;;;;;16.13;76.82;102030.28;5084271;28;19912;-54
2022/07/04 07:23:55;;;;;;;;;;;;;;;16.24;77.05;102028.03;5087818;28;20003;-53
2022/07/04 07:26:20;;;;;;;;;;;;;;;16.33;76.87;102026.13;5081460;28;19939;-54
2022/07/04 07:28:45;;;;;;;;;;;;;;;16.36;76.20;102020.41;5085217;28;19916;-54
2022/07/04 07:31:11;;;;;;;;;;;;;;;16.39;76.45;102018.19;5086685;28;20012;-54
2022/07/04 07:33:36;;;;;;;;;;;;;;;16.44;75.85;102017.66;5087387;28;20096;-54
2022/07/04 07:36:01;;;;;;;;;;;;;;;16.50;76.19;102013.44;5086677;28;19915;-55
2022/07/04 07:38:26;;;;;;;;;;;;;;;16.56;76.27;102015.38;5082426;28;19922;-53
2022/07/04 07:40:52;;;;;;;;;;;;;;;16.62;76.07;102006.59;5082699;28;19922;-55
2022/07/04 07:43:17;;;;;;;;;;;;;;;16.68;76.47;102003.22;5086633;28;19934;-55
2022/07/04 07:45:43;;;;;;;;;;;;;;;16.73;76.13;102003.50;5086073;28;19911;-52
2022/07/04 07:48:08;;;;;;;;;;;;;;;16.77;76.03;102001.28;5087556;28;19912;-54
2022/07/04 07:50:33;;;;;;;;;;;;;;;16.82;76.31;101999.75;5086355;28;19912;-52
2022/07/04 07:52:58;;;;;;;;;;;;;;;16.87;76.15;102008.06;5086222;28;20274;-53
2022/07/04 07:55:24;;;;;;;;;;;;;;;16.97;76.66;102011.31;5087536;28;19915;-53
2022/07/04 07:57:49;;;;;;;;;;;;;;;17.03;75.52;102007.88;5087208;28;19912;-52
2022/07/04 08:00:15;;;;;;;;;;;;;;;17.05;75.36;102007.69;5087946;28;20359;-55
2022/07/04 08:05:24;;;;;;;;;;;;;;;17.20;74.72;102007.72;5088197;28;19953;-55
2022/07/04 08:07:49;;;;;;;;;;;;;;;17.28;74.19;102012.97;5086201;28;19916;-54
2022/07/04 08:10:14;;;;;;;;;;;;;;;17.32;74.08;102003.53;5086695;28;19955;-55
2022/07/04 08:12:39;;;;;;;;;;;;;;;17.42;73.71;102008.63;5087082;28;19920;-53
2022/07/04 08:15:05;;;;;;;;;;;;;;;17.52;73.67;102012.69;5086071;28;20351;-55
2022/07/04 08:17:30;;;;;;;;;;;;;;;17.60;73.35;102014.41;5085342;28;19915;-55
2022/07/04 08:19:55;;;;;;;;;;;;;;;17.74;72.80;102016.28;5086448;28;19912;-54
2022/07/04 08:22:20;;;;;;;;;;;;;;;17.82;72.91;102018.84;5086888;28;20010;-52
2022/07/04 08:24:46;;;;;;;;;;;;;;;17.91;72.90;102016.88;5087982;28;20360;-54
2022/07/04 08:27:11;;;;;;;;;;;;;;;17.97;72.22;102021.50;5087569;28;19909;-55
2022/07/04 08:29:36;;;;;;;;;;;;;;;18.08;72.34;102029.06;5086227;28;19973;-54
2022/07/04 08:32:02;;;;;;;;;;;;;;;18.14;71.75;102033.69;5083194;28;20036;-53
2022/07/04 08:34:27;;;;;;;;;;;;;;;18.20;71.99;102029.38;5087127;28;19946;-54
2022/07/04 08:36:52;;;;;;;;;;;;;;;18.30;71.64;102021.00;5087532;28;19915;-55
2022/07/04 08:39:17;;;;;;;;;;;;;;;18.35;71.26;102018.56;5083996;28;20383;-55
2022/07/04 08:41:43;;;;;;;;;;;;;;;18.46;72.00;102024.25;5085006;28;19912;-55
2022/07/04 08:44:12;;;;;;;;;;;;;;;18.61;71.45;102026.03;5083260;28;19920;-55
2022/07/04 08:46:40;;;;;;;;;;;;;;;18.80;71.59;102026.25;5087415;28;19990;-52
2022/07/04 08:49:10;;;;;;;;;;;;;;;18.91;70.70;102026.72;5085766;28;19908;-56
2022/07/04 08:51:59;;;;;;;;;;;;;;;19.02;70.28;102024.28;5086942;28;19916;-55
2022/07/04 08:59:54;;;;;;;;;;;;;;;19.25;67.90;102018.63;5087169;28;19919;-56
2022/07/04 09:02:20;;;;;;;;;;;;;;;19.27;67.52;102010.38;5087626;28;19920;-54
2022/07/04 09:04:45;;;;;;;;;;;;;;;19.30;67.46;102029.66;5084781;28;19912;-54
2022/07/04 09:07:12;;;;;;;;;;;;;;;19.39;67.75;102025.78;5090791;28;19976;-54
2022/07/04 09:09:37;;;;;;;;;;;;;;;19.54;67.36;102030.22;5090895;28;20351;-54
2022/07/04 09:12:02;;;;;;;;;;;;;;;19.65;66.94;102035.00;5090028;28;19908;-52
2022/07/04 09:14:27;;;;;;;;;;;;;;;19.72;65.46;102033.19;5089363;28;19920;-55
2022/07/04 09:16:54;;;;;;;;;;;;;;;19.67;64.94;102031.13;5089408;28;19965;-54
2022/07/04 09:19:21;;;;;;;;;;;;;;;19.62;64.69;102030.03;5089533;28;19911;-52
2022/07/04 09:21:47;;;;;;;;;;;;;;;19.63;64.49;102031.69;5086104;28;19985;-53
2022/07/04 09:24:12;;;;;;;;;;;;;;;19.80;64.16;102024.94;5085083;28;19912;-53
2022/07/04 09:26:40;;;;;;;;;;;;;;;19.97;63.93;102020.84;5088902;28;19994;-52
2022/07/04 09:29:05;;;;;;;;;;;;;;;20.03;63.30;102029.97;5090236;28;20271;-52
2022/07/04 09:31:31;;;;;;;;;;;;;;;19.87;62.19;102031.16;5086946;28;20071;-53
2022/07/04 09:33:56;;;;;;;;;;;;;;;19.83;62.31;102029.91;5090403;28;20291;-52
2022/07/04 09:36:26;;;;;;;;;;;;;;;19.90;63.52;102019.13;5089126;28;19968;-56
2022/07/04 09:39:09;;;;;;;;;;;;;;;19.91;63.30;102024.31;5090085;28;19915;-52
2022/07/04 09:41:49;;;;;;;;;;;;;;;19.87;62.04;102022.25;5087679;28;19912;-55
2022/07/04 09:44:14;;;;;;;;;;;;;;;19.88;62.39;102022.03;5086053;28;19919;-52
2022/07/04 09:46:40;;;;;;;;;;;;;;;19.97;62.25;102025.41;5085446;28;20287;-54
2022/07/04 09:49:05;;;;;;;;;;;;;;;20.16;60.68;102026.47;5089960;28;19908;-55
2022/07/04 09:51:38;;;;;;;;;;;;;;;20.10;59.52;102017.31;5085695;28;19919;-54
2022/07/04 09:54:12;;;;;;;;;;;;;;;20.02;58.74;102018.34;5090470;28;19934;-53
2022/07/04 09:56:41;;;;;;;;;;;;;;;20.06;59.15;102014.22;5087613;28;19962;-53
2022/07/04 09:59:06;;;;;;;;;;;;;;;19.95;59.14;102025.59;5089788;28;19915;-53
2022/07/04 10:01:31;;;;;;;;;;;;;;;19.82;59.20;102028.25;5082606;28;19912;-53
2022/07/04 10:03:57;;;;;;;;;;;;;;;19.72;59.52;102025.13;5083333;28;19916;-54
2022/07/04 10:06:24;;;;;;;;;;;;;;;19.60;59.13;102029.41;5081919;28;19912;-53
2022/07/04 10:08:49;;;;;;;;;;;;;;;19.57;59.74;102021.72;5085973;28;20389;-55
2022/07/04 10:11:14;;;;;;;;;;;;;;;19.55;60.16;102023.78;5087329;28;20371;-53
2022/07/04 10:13:40;;;;;;;;;;;;;;;19.67;61.05;102012.25;5087629;28;19919;-55
2022/07/04 10:16:07;;;;;;;;;;;;;;;20.05;61.79;102015.25;5087022;28;19919;-53
2022/07/04 10:18:34;;;;;;;;;;;;;;;20.45;61.21;102018.00;5088566;28;19955;-54
2022/07/04 10:20:59;;;;;;;;;;;;;;;20.65;60.46;102005.34;5089694;28;19973;-54
2022/07/04 10:23:30;;;;;;;;;;;;;;;20.83;60.49;102006.59;5088326;28;20430;-52
2022/07/04 10:25:56;;;;;;;;;;;;;;;21.00;59.09;102007.78;5083132;28;19915;-53
2022/07/04 10:28:21;;;;;;;;;;;;;;;20.99;59.24;102019.63;5088184;28;19907;-55
2022/07/04 10:30:51;;;;;;;;;;;;;;;20.87;58.79;102010.53;5085993;28;20348;-55
2022/07/04 10:33:21;;;;;;;;;;;;;;;20.65;59.43;102002.66;5082962;28;19919;-52
2022/07/04 10:35:50;;;;;;;;;;;;;;;20.55;59.47;101999.56;5086054;28;20590;-54
2022/07/04 10:38:20;;;;;;;;;;;;;;;20.51;59.78;102006.38;5085568;28;19911;-54
2022/07/04 10:40:46;;;;;;;;;;;;;;;20.44;60.12;102013.66;5084126;28;19923;-53
2022/07/04 10:43:30;;;;;;;;;;;;;;;20.32;60.26;102010.72;5088092;28;19919;-54
2022/07/04 10:45:56;;;;;;;;;;;;;;;20.22;60.90;102004.88;5087533;28;20371;-54
2022/07/04 10:48:22;;;;;;;;;;;;;;;20.18;61.54;102000.09;5089127;28;20037;-54
2022/07/04 10:51:04;;;;;;;;;;;;;;;20.13;61.75;101999.91;5087558;28;20299;-51
2022/07/04 10:53:29;;;;;;;;;;;;;;;20.10;61.79;101999.28;5086177;28;20268;-53
2022/07/04 10:56:13;;;;;;;;;;;;;;;20.08;61.81;102001.34;5088159;28;20010;-52
2022/07/04 10:58:39;;;;;;;;;;;;;;;20.04;62.45;101994.72;5088621;28;19908;-54
2022/07/04 11:01:11;;;;;;;;;;;;;;;20.06;62.14;101998.03;5086713;28;19914;-55
2022/07/04 11:03:52;;;;;;;;;;;;;;;20.10;62.26;101999.28;5088858;28;19916;-54
2022/07/04 11:06:33;;;;;;;;;;;;;;;20.31;62.82;101997.44;5083004;28;19968;-53
2022/07/04 11:09:14;;;;;;;;;;;;;;;20.56;62.69;101989.59;5083957;28;19923;-55
2022/07/04 11:11:58;;;;;;;;;;;;;;;20.85;61.99;101991.00;5086400;28;19961;-51
2022/07/04 11:14:30;;;;;;;;;;;;;;;20.95;60.38;101991.41;5083621;28;19919;-54
2022/07/04 11:16:55;;;;;;;;;;;;;;;20.91;60.03;101996.41;5080083;28;20053;-54
2022/07/04 11:19:20;;;;;;;;;;;;;;;;;;5088544;28;19995;-55
2022/07/04 11:21:45;;;;;;;;;;;;;;;21.00;59.70;101995.13;5086550;28;19914;-56
2022/07/04 11:24:10;;;;;;;;;;;;;;;21.14;60.44;101992.41;5083316;28;19916;-55
2022/07/04 11:26:36;;;;;;;;;;;;;;;21.26;60.04;101988.84;5086924;28;19958;-54
2022/07/04 11:29:01;;;;;;;;;;;;;;;21.24;59.49;101982.81;5089090;28;20077;-55
2022/07/04 11:31:40;;;;;;;;;;;;;;;21.23;59.04;101993.81;5085430;28;20007;-54
2022/07/04 11:34:05;;;;;;;;;;;;;;;21.34;59.15;101996.72;5085708;28;19912;-54
2022/07/04 11:36:30;;;;;;;;;;;;;;;21.27;58.01;101995.91;5085258;28;19916;-55
2022/07/04 11:38:57;;;;;;;;;;;;;;;21.33;58.95;101984.25;5085838;28;20335;-55
2022/07/04 11:47:01;;;;;;;;;;;;;;;21.89;55.62;101980.00;5087448;28;19930;-54
2022/07/04 11:49:26;;;;;;;;;;;;;;;22.02;53.79;101976.41;5087263;28;19908;-53
2022/07/04 11:51:55;;;;;;;;;;;;;;;21.94;52.98;101972.91;5085668;28;19908;-55
2022/07/04 11:54:20;;;;;;;;;;;;;;;22.01;53.11;101966.63;5085153;28;20279;-54
2022/07/04 11:56:46;;;;;;;;;;;;;;;22.18;52.40;101971.31;5088270;28;19920;-55
2022/07/04 11:59:13;;;;;;;;;;;;;;;22.20;52.32;101960.25;5086543;28;19912;-55
2022/07/04 12:01:38;;;;;;;;;;;;;;;22.27;51.83;101961.06;5086338;28;19961;-53
2022/07/04 12:04:17;;;;;;;;;;;;;;;22.46;52.61;101961.91;5084147;28;19931;-53
2022/07/04 12:06:42;;;;;;;;;;;;;;;22.69;51.62;101964.00;5086886;28;19969;-53
2022/07/04 12:09:08;;;;;;;;;;;;;;;22.65;51.03;101962.78;5086053;28;20370;-55
2022/07/04 12:11:50;;;;;;;;;;;;;;;22.53;51.54;101960.78;5082048;28;19927;-54
2022/07/04 12:14:15;;;;;;;;;;;;;;;22.59;51.77;101969.94;5085475;28;20011;-54
2022/07/04 12:16:40;;;;;;;;;;;;;;;22.39;51.97;101959.28;5090431;28;19994;-54
2022/07/04 12:19:11;;;;;;;;;;;;;;;22.17;52.29;101958.00;5091054;28;20429;-53
2022/07/04 12:21:36;;;;;;;;;;;;;;;22.15;52.57;101963.63;5084891;28;19920;-53
2022/07/04 12:24:04;;;;;;;;;;;;;;;22.29;52.75;101960.84;5087492;28;19908;-55
2022/07/04 12:26:30;;;;;;;;;;;;;;;22.51;52.92;101956.66;5079355;28;19915;-54
2022/07/04 12:28:56;;;;;;;;;;;;;;;22.75;52.08;101960.38;5083296;28;20410;-53
2022/07/04 12:31:37;;;;;;;;;;;;;;;22.84;51.48;101956.34;5081809;28;19912;-54
2022/07/04 12:34:02;;;;;;;;;;;;;;;23.03;51.07;101949.91;5083416;28;19928;-56
2022/07/04 12:36:27;;;;;;;;;;;;;;;23.16;50.67;101949.75;5087520;28;20318;-56
2022/07/04 12:38:54;;;;;;;;;;;;;;;23.27;50.29;101942.75;5084562;28;19912;-54
2022/07/04 12:41:29;;;;;;;;;;;;;;;23.32;49.55;101944.75;5090594;28;20371;-55
2022/07/04 12:43:54;;;;;;;;;;;;;;;23.29;49.23;101945.22;5081431;28;19912;-55
2022/07/04 12:46:27;;;;;;;;;;;;;;;23.34;49.25;101942.66;5082352;28;20370;-54
2022/07/04 12:48:53;;;;;;;;;;;;;;;23.52;49.25;101937.19;5082917;28;20362;-55
2022/07/04 12:51:20;;;;;;;;;;;;;;;23.68;49.13;101933.84;5085481;28;19943;-54
2022/07/04 12:53:46;;;;;;;;;;;;;;;23.89;49.38;101943.34;5086904;28;19927;-52
2022/07/04 12:56:31;;;;;;;;;;;;;;;23.93;47.15;101936.41;5083664;28;19916;-55